Time;durP1;ratioP1;P1;durP2;ratioP2;P2;SDS_P1;SDS_P2;PMS_P1;PMS_P2;Temp;Humidity;BMP_temperature;BMP_pressure;BME280_temperature;BME280_humidity;BME280_pressure;Samples;Min_cycle;Max_cycle;Signal;HPM_P1;HPM_P2
2022/09/09 00:01:30;;;;;;;11.43;10.20;;;;;;;20.16;82.45;98420.04;2303421;77;20968;-84
2022/09/09 00:04:28;;;;;;;12.88;10.40;;;;;;;20.21;81.54;98414.13;2303597;77;21015;-84
2022/09/09 00:07:29;;;;;;;12.07;11.00;;;;;;;20.23;81.87;98412.75;2303621;77;20933;-84
2022/09/09 00:10:29;;;;;;;12.78;11.57;;;;;;;20.20;81.99;98424.32;2303431;77;20941;-84
2022/09/09 00:13:29;;;;;;;13.75;12.43;;;;;;;20.06;81.57;98415.97;2303462;77;20977;-85
2022/09/09 00:16:31;;;;;;;21.05;15.68;;;;;;;19.85;82.21;98412.20;2303664;77;20947;-85
2022/09/09 00:19:30;;;;;;;13.00;11.80;;;;;;;19.83;82.82;98417.14;2303668;77;21337;-85
2022/09/09 00:22:31;;;;;;;14.93;12.33;;;;;;;19.87;83.68;98406.40;2303352;77;20894;-82
2022/09/09 00:25:31;;;;;;;13.22;11.90;;;;;;;19.91;83.38;98403.19;2303625;77;20976;-85
2022/09/09 00:28:32;;;;;;;17.95;14.45;;;;;;;19.82;83.40;98407.00;2303355;77;20933;-84
2022/09/09 00:31:32;;;;;;;15.98;14.10;;;;;;;19.82;83.59;98414.95;2303382;77;21310;-85
2022/09/09 00:34:32;;;;;;;19.30;15.48;;;;;;;19.76;83.68;98410.31;2303143;77;21000;-85
2022/09/09 00:37:34;;;;;;;19.67;16.48;;;;;;;19.66;83.94;98409.27;2303685;77;20988;-85
2022/09/09 00:40:33;;;;;;;16.95;14.80;;;;;;;19.62;84.58;98412.07;2303684;77;20973;-84
2022/09/09 00:43:35;;;;;;;24.80;17.85;;;;;;;19.56;84.79;98413.13;2284665;77;20968;-84
2022/09/09 00:46:36;;;;;;;18.17;16.12;;;;;;;19.34;85.48;98419.50;2316763;77;20986;-83
2022/09/09 00:49:37;;;;;;;16.05;14.50;;;;;;;19.36;85.36;98418.13;2316569;77;20992;-81
2022/09/09 00:52:37;;;;;;;12.68;11.55;;;;;;;18.92;85.44;98415.44;2316427;77;21371;-82
2022/09/09 00:55:37;;;;;;;12.93;11.50;;;;;;;18.51;87.08;98421.83;2316380;77;20943;-81
2022/09/09 00:58:37;;;;;;;12.07;10.00;;;;;;;18.19;89.99;98423.50;2316614;77;20932;-81
2022/09/09 01:01:39;;;;;;;10.78;9.85;;;;;;;17.96;90.84;98423.20;2316227;77;21362;-83
2022/09/09 01:04:38;;;;;;;11.90;10.70;;;;;;;17.77;92.15;98427.61;2316388;77;21034;-82
2022/09/09 01:07:39;;;;;;;11.08;10.03;;;;;;;17.65;91.91;98423.91;2316037;77;20958;-82
2022/09/09 01:10:41;;;;;;;11.10;10.08;;;;;;;17.53;95.17;98430.78;2316614;77;20927;-84
2022/09/09 01:13:40;;;;;;;12.13;10.85;;;;;;;17.46;96.03;98438.42;2316795;77;20912;-83
2022/09/09 01:16:41;;;;;;;12.88;11.43;;;;;;;17.37;94.58;98445.22;2316475;77;21276;-83
2022/09/09 01:19:40;;;;;;;15.80;14.05;;;;;;;17.32;96.11;98447.92;2316502;77;20936;-82
2022/09/09 01:22:41;;;;;;;14.00;12.60;;;;;;;17.30;96.14;98455.00;2316608;77;20974;-81
2022/09/09 01:25:41;;;;;;;15.03;10.98;;;;;;;17.25;97.07;98454.69;2316563;77;20975;-82
2022/09/09 01:28:42;;;;;;;11.12;10.03;;;;;;;17.18;97.46;98450.86;2316353;77;21331;-82
2022/09/09 01:31:42;;;;;;;17.48;14.43;;;;;;;17.11;97.37;98451.02;2316448;77;20935;-83
2022/09/09 01:34:42;;;;;;;11.43;10.25;;;;;;;17.01;99.01;98460.02;2316392;77;20990;-83
2022/09/09 01:37:43;;;;;;;11.50;10.32;;;;;;;16.95;98.50;98464.95;2316021;77;20991;-82
2022/09/09 01:40:43;;;;;;;11.90;9.98;;;;;;;16.90;98.77;98470.77;2316644;77;20943;-83
2022/09/09 01:43:44;;;;;;;11.18;9.70;;;;;;;16.86;98.53;98476.55;2316434;77;21340;-81
2022/09/09 01:46:44;;;;;;;11.05;9.95;;;;;;;16.83;100.00;98483.20;2316282;77;20884;-82
2022/09/09 01:49:44;;;;;;;11.48;10.25;;;;;;;16.79;99.72;98489.42;2316416;77;20966;-82
2022/09/09 01:52:45;;;;;;;11.75;10.55;;;;;;;16.77;99.17;98489.03;2316595;77;20916;-82
2022/09/09 01:55:45;;;;;;;11.68;10.50;;;;;;;16.74;99.63;98492.59;2316214;77;21343;-82
2022/09/09 01:58:46;;;;;;;12.95;10.63;;;;;;;16.71;100.00;98501.01;2316286;77;20912;-83
2022/09/09 02:01:46;;;;;;;13.60;10.75;;;;;;;16.64;100.00;98498.90;2316878;77;20935;-82
2022/09/09 02:04:46;;;;;;;11.68;10.32;;;;;;;16.62;100.00;98505.09;2316459;77;20982;-83
2022/09/09 02:07:47;;;;;;;11.18;10.08;;;;;;;16.62;100.00;98503.78;2316264;77;20978;-83
2022/09/09 02:10:47;;;;;;;11.55;10.45;;;;;;;16.59;100.00;98498.56;2316542;77;20943;-83
2022/09/09 02:13:48;;;;;;;11.10;10.10;;;;;;;16.55;100.00;98504.33;2316731;77;21112;-82
2022/09/09 02:16:48;;;;;;;11.45;9.83;;;;;;;16.50;100.00;98502.22;2316811;77;20891;-82
2022/09/09 02:19:49;;;;;;;14.83;10.05;;;;;;;16.48;100.00;98507.52;2316516;77;20887;-83
2022/09/09 02:22:49;;;;;;;10.58;9.63;;;;;;;16.46;100.00;98511.91;2316683;77;20939;-83
2022/09/09 02:25:51;;;;;;;12.43;11.20;;;;;;;16.44;100.00;98515.02;2316931;77;20935;-84
2022/09/09 02:28:50;;;;;;;14.87;12.88;;;;;;;16.42;100.00;98516.81;2316895;77;21010;-83
2022/09/09 02:31:50;;;;;;;12.23;10.38;;;;;;;16.42;100.00;98515.50;2316685;77;20947;-82
2022/09/09 02:34:50;;;;;;;13.18;11.48;;;;;;;16.42;100.00;98526.03;2316181;77;21049;-83
2022/09/09 02:37:51;;;;;;;11.90;10.70;;;;;;;16.41;100.00;98532.20;2316743;77;20950;-82
2022/09/09 02:40:52;;;;;;;25.27;22.87;;;;;;;16.39;100.00;98535.30;2316750;77;20931;-82
2022/09/09 02:43:52;;;;;;;13.80;12.03;;;;;;;16.35;100.00;98528.34;2316163;77;21315;-83
2022/09/09 02:46:52;;;;;;;12.20;11.10;;;;;;;16.30;100.00;98532.81;2316319;77;20900;-82
2022/09/09 02:49:53;;;;;;;11.63;10.43;;;;;;;16.25;100.00;98543.42;2316307;77;20935;-84
2022/09/09 02:52:53;;;;;;;13.50;12.10;;;;;;;16.18;100.00;98543.09;2316869;77;20932;-84
2022/09/09 02:55:54;;;;;;;16.50;13.08;;;;;;;16.15;100.00;98550.17;2316783;77;21311;-82
2022/09/09 02:58:54;;;;;;;13.03;10.38;;;;;;;16.13;100.00;98548.02;2316650;77;21268;-84
2022/09/09 03:01:54;;;;;;;13.15;10.60;;;;;;;16.10;100.00;98551.56;2316638;77;21266;-84
2022/09/09 03:04:55;;;;;;;11.28;10.10;;;;;;;16.07;100.00;98552.92;2316203;77;20998;-83
2022/09/09 03:07:55;;;;;;;10.08;9.18;;;;;;;16.02;100.00;98557.38;2316598;77;20951;-82
2022/09/09 03:10:56;;;;;;;10.82;9.50;;;;;;;15.98;100.00;98564.03;2316234;77;20943;-82
2022/09/09 03:13:56;;;;;;;11.30;10.13;;;;;;;15.92;100.00;98560.59;2316524;77;20959;-83
2022/09/09 03:16:57;;;;;;;13.58;11.85;;;;;;;15.89;100.00;98558.45;2316538;77;20955;-83
2022/09/09 03:19:58;;;;;;;13.88;10.30;;;;;;;15.84;100.00;98561.59;2316323;77;21409;-82
2022/09/09 03:22:57;;;;;;;11.55;10.28;;;;;;;15.79;100.00;98558.16;2316441;77;20915;-82
2022/09/09 03:25:58;;;;;;;15.98;13.15;;;;;;;15.76;100.00;98565.64;2316491;77;20931;-81
2022/09/09 03:29:00;;;;;;;20.02;17.80;;;;;;;15.75;100.00;98570.93;2316403;77;20970;-82
2022/09/09 03:31:58;;;;;;;27.22;20.62;;;;;;;15.74;100.00;98567.42;2316833;77;20963;-82
2022/09/09 03:34:59;;;;;;;34.08;19.27;;;;;;;15.75;100.00;98565.66;2316073;77;20981;-82
2022/09/09 03:38:00;;;;;;;30.23;16.45;;;;;;;15.74;100.00;98571.82;2315968;77;20997;-82
2022/09/09 03:41:01;;;;;;;33.30;20.50;;;;;;;15.75;100.00;98573.12;2316612;77;20999;-80
2022/09/09 03:44:00;;;;;;;14.25;10.45;;;;;;;15.78;100.00;98579.66;2305895;77;21354;-81
2022/09/09 03:47:00;;;;;;;11.33;9.78;;;;;;;15.78;100.00;98578.34;2301644;77;20878;-80
2022/09/09 03:50:01;;;;;;;38.85;12.43;;;;;;;15.78;100.00;98579.66;2302249;77;20949;-84
2022/09/09 03:53:01;;;;;;;15.65;12.58;;;;;;;15.77;100.00;98581.86;2302107;77;20913;-82
2022/09/09 03:56:02;;;;;;;13.98;9.78;;;;;;;15.77;100.00;98584.49;2301885;77;20921;-82
2022/09/09 03:59:02;;;;;;;19.27;14.38;;;;;;;15.79;100.00;98587.97;2303588;77;20964;-81
2022/09/09 04:02:02;;;;;;;18.55;14.80;;;;;;;16.06;100.00;98585.86;2303393;77;21455;-80
2022/09/09 04:05:03;;;;;;;25.32;19.35;;;;;;;16.03;100.00;98579.31;2304082;77;21044;-82
2022/09/09 04:08:05;;;;;;;29.98;18.90;;;;;;;15.96;100.00;98577.66;2305012;77;20969;-82
2022/09/09 04:11:06;;;;;;;25.40;20.23;;;;;;;15.89;100.00;98581.70;2279151;77;21031;-83
2022/09/09 04:14:06;;;;;;;19.10;12.25;;;;;;;15.79;100.00;98580.08;2303739;77;20918;-80
2022/09/09 04:17:06;;;;;;;21.27;12.18;;;;;;;15.71;100.00;98583.70;2303274;77;20929;-81
2022/09/09 04:20:11;;;;;;;15.35;9.43;;;;;;;15.64;100.00;98582.91;2303374;77;21012;-82
2022/09/09 04:23:07;;;;;;;9.55;8.55;;;;;;;15.58;100.00;98586.90;2302581;77;20961;-82
2022/09/09 04:26:08;;;;;;;13.98;8.78;;;;;;;15.84;100.00;98595.81;2301742;77;21352;-82
2022/09/09 04:29:08;;;;;;;14.58;8.85;;;;;;;16.70;100.00;98585.79;2301964;77;20945;-83
2022/09/09 04:32:09;;;;;;;21.02;12.03;;;;;;;17.43;100.00;98587.11;2301971;77;20980;-82
2022/09/09 04:35:09;;;;;;;23.57;14.85;;;;;;;17.87;100.00;98585.36;2301678;77;20973;-81
2022/09/09 04:38:09;;;;;;;18.17;14.60;;;;;;;18.23;98.94;98587.66;2302109;77;20916;-81
2022/09/09 04:41:11;;;;;;;19.23;14.03;;;;;;;18.53;96.63;98592.68;2301765;77;20957;-78
2022/09/09 04:44:10;;;;;;;17.20;12.15;;;;;;;18.63;93.60;98592.91;2290701;76;21674;-83
2022/09/09 04:47:11;;;;;;;24.57;12.88;;;;;;;18.18;89.40;98594.80;2285408;78;20955;-82
2022/09/09 04:50:12;;;;;;;17.07;9.65;;;;;;;17.56;89.29;98603.57;2284714;78;20966;-82
2022/09/09 04:53:12;;;;;;;9.40;8.50;;;;;;;17.20;90.68;98607.75;2284514;78;20934;-84
2022/09/09 04:56:12;;;;;;;10.68;8.73;;;;;;;16.96;91.59;98605.11;2286072;78;20997;-82
2022/09/09 04:59:12;;;;;;;18.37;11.68;;;;;;;16.78;93.21;98608.94;2286659;78;20958;-82
2022/09/09 05:02:13;;;;;;;14.40;12.65;;;;;;;16.62;93.24;98606.09;2285060;78;21368;-83
2022/09/09 05:05:13;;;;;;;24.35;13.15;;;;;;;16.55;94.04;98615.86;2285297;78;20994;-81
2022/09/09 05:08:14;;;;;;;11.12;10.05;;;;;;;16.51;94.75;98615.48;2284399;78;20918;-82
2022/09/09 05:11:15;;;;;;;14.30;10.60;;;;;;;16.52;95.21;98621.19;2284778;78;20966;-79
2022/09/09 05:14:14;;;;;;;10.05;9.15;;;;;;;16.58;95.51;98616.71;2283887;78;21346;-79
2022/09/09 05:17:16;;;;;;;16.30;10.63;;;;;;;16.65;96.44;98612.67;2282041;78;20911;-77
2022/09/09 05:20:16;;;;;;;18.67;14.03;;;;;;;16.63;96.73;98614.42;2282394;78;20947;-77
2022/09/09 05:23:16;;;;;;;19.75;13.93;;;;;;;16.51;96.58;98623.84;2283292;78;20915;-80
2022/09/09 05:26:16;;;;;;;15.00;13.43;;;;;;;16.38;96.56;98621.80;2283126;78;21476;-81
2022/09/09 05:29:19;;;;;;;14.98;13.03;;;;;;;16.38;96.97;98630.16;2283525;78;20938;-81
2022/09/09 05:32:17;;;;;;;17.25;12.40;;;;;;;16.38;97.34;98629.70;2283745;78;20989;-82
2022/09/09 05:35:18;;;;;;;15.90;14.28;;;;;;;16.38;97.56;98634.98;2282933;78;21033;-81
2022/09/09 05:38:18;;;;;;;29.70;19.05;;;;;;;16.39;97.48;98627.50;2283081;78;20938;-81
2022/09/09 05:41:19;;;;;;;24.85;20.48;;;;;;;16.47;97.62;98631.34;2283703;78;20891;-83
2022/09/09 05:44:19;;;;;;;25.70;19.85;;;;;;;16.55;97.38;98634.31;2295549;77;21004;-81
2022/09/09 05:47:19;;;;;;;26.80;18.62;;;;;;;16.66;97.29;98630.67;2301134;77;20929;-82
2022/09/09 05:50:20;;;;;;;30.08;20.50;;;;;;;16.74;97.10;98634.05;2300921;77;20941;-81
2022/09/09 05:53:21;;;;;;;30.45;21.73;;;;;;;16.78;96.91;98638.38;2300645;77;20906;-79
2022/09/09 05:56:27;;;;;;;26.25;20.85;;;;;;;16.84;96.94;98653.64;2299521;77;20952;-81
2022/09/09 05:59:24;;;;;;;32.83;24.70;;;;;;;16.83;96.76;98644.44;2299686;77;20949;-81
2022/09/09 06:02:25;;;;;;;32.08;26.82;;;;;;;16.82;96.87;98657.20;2300405;77;20890;-79
2022/09/09 06:05:28;;;;;;;26.05;21.87;;;;;;;16.88;96.85;98662.38;2300000;77;21341;-80
2022/09/09 06:08:26;;;;;;;38.02;24.70;;;;;;;16.96;96.81;98653.89;2300522;77;20990;-77
2022/09/09 06:11:26;;;;;;;29.18;21.65;;;;;;;16.99;96.98;98655.60;2299381;77;20965;-76
2022/09/09 06:14:27;;;;;;;29.15;22.55;;;;;;;17.01;96.45;98652.05;2300972;77;20929;-81
2022/09/09 06:17:27;;;;;;;25.32;21.50;;;;;;;17.15;96.02;98656.62;2301357;77;21287;-81
2022/09/09 06:20:30;;;;;;;36.50;25.43;;;;;;;17.29;95.26;98652.87;2300977;77;20917;-82
2022/09/09 06:23:28;;;;;;;23.45;18.87;;;;;;;17.49;95.66;98659.56;2300165;77;20890;-80
2022/09/09 06:26:28;;;;;;;21.42;18.45;;;;;;;17.53;94.26;98663.46;2299759;77;20901;-81
2022/09/09 06:29:28;;;;;;;23.38;18.25;;;;;;;17.55;94.27;98662.98;2300288;77;20981;-79
2022/09/09 06:32:29;;;;;;;27.15;23.32;;;;;;;17.65;93.62;98667.19;2300198;77;20944;-80
2022/09/09 06:35:29;;;;;;;22.95;20.43;;;;;;;17.86;92.92;98671.20;2300308;77;20999;-80
2022/09/09 06:38:30;;;;;;;20.80;18.60;;;;;;;18.07;91.98;98668.98;2300496;77;20952;-81
2022/09/09 06:41:32;;;;;;;20.95;18.70;;;;;;;18.24;91.11;98672.63;2300929;77;20933;-80
2022/09/09 06:44:33;;;;;;;25.05;18.40;;;;;;;18.29;90.72;98665.92;2281227;77;20944;-80
2022/09/09 06:47:33;;;;;;;17.98;16.07;;;;;;;18.20;89.62;98670.92;2314007;77;20909;-81
2022/09/09 06:50:34;;;;;;;22.30;16.12;;;;;;;18.15;89.17;98670.15;2314068;77;21346;-81
2022/09/09 06:53:34;;;;;;;21.30;18.35;;;;;;;18.27;89.53;98671.23;2313764;77;20919;-81
2022/09/09 06:56:34;;;;;;;23.77;17.45;;;;;;;18.60;89.81;98668.73;2313904;77;20915;-80
2022/09/09 06:59:34;;;;;;;49.30;17.90;;;;;;;18.77;88.26;98670.11;2314596;77;21042;-82
2022/09/09 07:02:39;;;;;;;15.30;13.70;;;;;;;18.73;87.65;98675.06;2315667;77;20910;-80
2022/09/09 07:05:35;;;;;;;16.65;13.62;;;;;;;18.98;86.21;98674.47;2314807;77;21362;-80
2022/09/09 07:08:36;;;;;;;16.15;14.20;;;;;;;19.09;84.97;98675.97;2316113;77;20947;-78
2022/09/09 07:11:37;;;;;;;14.30;12.80;;;;;;;19.03;84.62;98679.19;2315580;77;20958;-81
2022/09/09 07:14:37;;;;;;;19.82;12.00;;;;;;;19.00;84.65;98676.62;2315875;77;21386;-79
2022/09/09 07:17:37;;;;;;;15.20;13.60;;;;;;;19.47;84.50;98668.81;2315036;77;20978;-82
2022/09/09 07:20:38;;;;;;;14.85;13.32;;;;;;;19.41;83.16;98678.23;2313236;77;21021;-79
2022/09/09 07:23:38;;;;;;;14.10;12.70;;;;;;;19.19;83.10;98677.06;2314146;77;20908;-82
2022/09/09 07:26:38;;;;;;;13.08;11.88;;;;;;;19.28;83.91;98684.77;2313789;77;21346;-82
2022/09/09 07:29:39;;;;;;;12.98;11.68;;;;;;;19.79;83.16;98677.69;2313021;77;20966;-80
2022/09/09 07:32:39;;;;;;;12.30;10.75;;;;;;;19.76;82.25;98687.05;2314710;77;20895;-80
2022/09/09 07:35:42;;;;;;;11.22;10.20;;;;;;;19.73;82.08;98695.48;2283609;77;20943;-81
2022/09/09 07:38:43;;;;;;;11.28;10.18;;;;;;;19.82;80.62;98692.17;2313781;77;20935;-83
2022/09/09 07:41:42;;;;;;;11.10;10.00;;;;;;;20.33;80.11;98688.51;2313551;77;20951;-83
2022/09/09 07:44:43;;;;;;;10.55;9.50;;;;;;;20.41;78.11;98688.31;2306286;77;20949;-80
2022/09/09 07:47:43;;;;;;;10.03;9.00;;;;;;;19.94;77.48;98691.41;2301808;77;20941;-82
2022/09/09 07:50:44;;;;;;;9.08;8.30;;;;;;;20.14;79.43;98692.16;2302606;77;20948;-82
2022/09/09 07:53:44;;;;;;;8.45;7.65;;;;;;;20.50;76.93;98694.66;2302703;77;20981;-81
2022/09/09 07:56:44;;;;;;;8.73;7.80;;;;;;;20.76;76.93;98688.09;2300231;77;20913;-80
2022/09/09 07:59:45;;;;;;;13.85;8.53;;;;;;;20.65;75.70;98693.73;2300879;77;20885;-83
2022/09/09 08:02:46;;;;;;;8.80;7.90;;;;;;;20.38;76.46;98692.34;2301052;77;21296;-82
2022/09/09 08:05:45;;;;;;;13.50;6.58;;;;;;;20.60;76.44;98686.38;2300503;77;21476;-83
2022/09/09 08:08:47;;;;;;;6.90;6.25;;;;;;;20.98;75.95;98682.53;2300440;77;20889;-80
2022/09/09 08:11:46;;;;;;;7.75;6.75;;;;;;;21.23;74.33;98677.77;2300451;77;20976;-79
2022/09/09 08:14:47;;;;;;;7.05;6.33;;;;;;;21.46;72.31;98685.81;2300478;77;21376;-79
2022/09/09 08:17:47;;;;;;;7.70;6.33;;;;;;;21.08;72.27;98689.73;2300295;77;20932;-83
2022/09/09 08:20:47;;;;;;;9.15;6.72;;;;;;;20.88;72.45;98693.49;2300062;77;20921;-82
2022/09/09 08:23:48;;;;;;;8.65;6.05;;;;;;;20.86;72.12;98693.54;2299766;77;20898;-82
2022/09/09 08:26:49;;;;;;;6.08;5.42;;;;;;;20.86;72.81;98694.00;2299684;77;21645;-81
2022/09/09 08:29:49;;;;;;;5.87;5.03;;;;;;;21.12;72.79;98683.86;2300063;77;20949;-80
2022/09/09 08:32:50;;;;;;;4.80;4.40;;;;;;;21.36;70.11;98688.38;2300081;77;20890;-80
2022/09/09 08:35:49;;;;;;;5.47;5.08;;;;;;;21.49;70.35;98679.07;2299913;77;21012;-82
2022/09/09 08:38:50;;;;;;;4.65;4.25;;;;;;;21.75;69.76;98683.49;2300277;77;21619;-82
2022/09/09 08:41:50;;;;;;;4.80;4.40;;;;;;;21.88;68.87;98676.81;2299232;77;20922;-82
2022/09/09 08:44:51;;;;;;;5.12;4.00;;;;;;;22.03;68.48;98676.75;2299321;77;20953;-81
2022/09/09 08:47:51;;;;;;;6.08;4.20;;;;;;;22.19;67.64;98674.38;2299253;77;20989;-83
2022/09/09 08:50:51;;;;;;;5.78;4.53;;;;;;;22.18;65.98;98681.95;2299225;77;20937;-83
2022/09/09 08:53:53;;;;;;;4.60;4.20;;;;;;;22.13;65.50;98682.59;2299571;77;20913;-83
2022/09/09 08:56:52;;;;;;;9.18;4.50;;;;;;;22.16;66.21;98676.69;2299187;77;21411;-84
2022/09/09 08:59:55;;;;;;;4.35;3.37;;;;;;;22.33;65.40;98677.84;2299224;77;20937;-84
2022/09/09 09:02:53;;;;;;;4.95;3.80;;;;;;;22.44;65.23;98687.61;2300159;77;20953;-83
2022/09/09 09:05:54;;;;;;;3.90;3.60;;;;;;;22.50;64.55;98684.25;2300244;77;21324;-83
2022/09/09 09:08:54;;;;;;;3.77;3.47;;;;;;;22.61;64.16;98682.99;2300262;77;21266;-84
2022/09/09 09:11:54;;;;;;;4.58;4.05;;;;;;;22.67;63.62;98690.73;2300128;77;21428;-83
2022/09/09 09:14:58;;;;;;;4.65;3.22;;;;;;;22.78;63.36;98690.71;2300068;77;20890;-85
2022/09/09 09:17:55;;;;;;;3.25;3.00;;;;;;;22.79;62.14;98687.12;2299890;77;20920;-84
2022/09/09 09:20:56;;;;;;;3.42;3.10;;;;;;;22.67;59.96;98676.97;2299507;77;21719;-83
2022/09/09 09:23:56;;;;;;;3.87;3.58;;;;;;;22.58;61.99;98686.64;2299703;77;20960;-84
2022/09/09 09:26:56;;;;;;;4.47;3.42;;;;;;;22.77;61.98;98688.11;2300681;77;20945;-84
2022/09/09 09:29:58;;;;;;;6.85;3.37;;;;;;;22.81;61.60;98693.28;2300918;77;20949;-84
2022/09/09 09:32:57;;;;;;;5.03;3.40;;;;;;;23.03;61.11;98699.94;2299487;77;21321;-81
2022/09/09 09:35:59;;;;;;;3.70;3.20;;;;;;;22.97;59.50;98699.31;2299242;77;21384;-82
2022/09/09 09:38:59;;;;;;;3.37;3.08;;;;;;;22.94;59.33;98696.78;2299883;77;20946;-83
2022/09/09 09:42:01;;;;;;;4.53;2.90;;;;;;;22.89;58.43;98699.63;2298616;77;20968;-82
2022/09/09 09:44:59;;;;;;;4.20;3.30;;;;;;;22.66;57.58;98700.51;2289615;77;21009;-84
2022/09/09 09:47:59;;;;;;;3.00;2.80;;;;;;;22.57;59.28;98696.88;2281341;78;21349;-82
2022/09/09 09:51:03;;;;;;;3.77;2.65;;;;;;;22.48;58.88;98703.84;2281577;78;20927;-83
2022/09/09 09:54:05;;;;;;;4.65;3.20;;;;;;;22.56;59.90;98700.47;2282191;78;20875;-82
2022/09/09 09:57:03;;;;;;;5.20;2.83;;;;;;;22.69;56.50;98706.17;2282302;78;20950;-82
2022/09/09 10:00:06;;;;;;;4.75;3.08;;;;;;;22.54;57.63;98716.91;2281690;78;20910;-82
2022/09/09 10:03:04;;;;;;;4.25;2.75;;;;;;;22.44;57.83;98714.20;2281679;78;21370;-82
2022/09/09 10:06:05;;;;;;;4.08;3.40;;;;;;;22.54;57.90;98711.16;2281651;78;21005;-82
2022/09/09 10:09:08;;;;;;;3.08;2.77;;;;;;;22.50;57.32;98712.17;2281507;78;20962;-83
2022/09/09 10:12:06;;;;;;;4.15;2.45;;;;;;;22.56;58.27;98708.45;2281627;78;20907;-82
2022/09/09 10:15:06;;;;;;;4.20;2.80;;;;;;;22.81;56.88;98703.06;2282162;78;20919;-84
2022/09/09 10:18:06;;;;;;;2.95;2.62;;;;;;;22.80;57.04;98700.86;2283180;78;21356;-84
2022/09/09 10:21:07;;;;;;;2.65;2.35;;;;;;;22.95;57.51;98706.03;2281723;78;20884;-82
2022/09/09 10:24:08;;;;;;;3.52;2.80;;;;;;;23.20;56.70;98708.09;2281820;78;20994;-82
2022/09/09 10:27:08;;;;;;;3.05;2.80;;;;;;;23.25;57.21;98709.23;2281820;78;20914;-83
2022/09/09 10:30:08;;;;;;;3.45;2.85;;;;;;;23.37;55.85;98707.39;2283124;78;20986;-82
2022/09/09 10:33:09;;;;;;;4.03;2.65;;;;;;;23.40;55.62;98707.27;2282565;78;20914;-82
2022/09/09 10:36:10;;;;;;;3.15;2.87;;;;;;;23.77;55.12;98711.94;2283345;78;21037;-81
2022/09/09 10:39:09;;;;;;;4.97;2.95;;;;;;;24.05;54.37;98708.05;2281946;78;20907;-82
2022/09/09 10:42:12;;;;;;;2.60;2.40;;;;;;;24.09;54.45;98703.84;2281797;78;21026;-81
2022/09/09 10:45:11;;;;;;;3.35;2.10;;;;;;;24.26;53.13;98716.88;2297917;77;21054;-81
2022/09/09 10:48:12;;;;;;;2.17;2.05;;;;;;;24.27;53.77;98721.31;2313499;77;21330;-79
2022/09/09 10:51:12;;;;;;;3.05;2.70;;;;;;;24.33;53.31;98722.41;2313454;77;20951;-81
2022/09/09 10:54:14;;;;;;;3.33;2.45;;;;;;;24.28;52.05;98723.95;2313331;77;20963;-81
2022/09/09 10:57:14;;;;;;;3.15;2.85;;;;;;;24.20;53.02;98725.16;2283054;77;20923;-81
2022/09/09 11:00:15;;;;;;;4.08;2.30;;;;;;;24.21;52.72;98726.90;2312894;77;20912;-81
2022/09/09 11:03:16;;;;;;;2.20;2.08;;;;;;;24.18;52.95;98732.37;2313477;77;20935;-82
2022/09/09 11:06:16;;;;;;;2.92;2.42;;;;;;;24.25;52.94;98731.16;2313218;77;21022;-82
2022/09/09 11:09:17;;;;;;;2.98;2.55;;;;;;;24.23;52.88;98722.36;2313111;77;20939;-81
2022/09/09 11:12:17;;;;;;;3.02;2.42;;;;;;;24.27;52.90;98719.52;2312721;77;20982;-81
2022/09/09 11:15:17;;;;;;;2.60;2.30;;;;;;;24.33;52.54;98724.60;2312993;77;20903;-82
2022/09/09 11:18:17;;;;;;;2.80;2.40;;;;;;;24.59;52.47;98719.39;2313666;77;20947;-82
2022/09/09 11:21:18;;;;;;;4.42;2.60;;;;;;;24.69;52.30;98714.02;2313298;77;20994;-82
2022/09/09 11:24:19;;;;;;;2.83;2.30;;;;;;;24.70;52.39;98715.75;2314024;77;20955;-81
2022/09/09 11:27:18;;;;;;;2.42;2.33;;;;;;;24.84;51.76;98720.90;2313491;77;21289;-81
2022/09/09 11:30:19;;;;;;;6.12;2.08;;;;;;;25.08;51.35;98724.61;2314299;77;20963;-82
2022/09/09 11:33:21;;;;;;;2.52;2.33;;;;;;;25.20;50.45;98729.86;2313803;77;20904;-82
2022/09/09 11:36:20;;;;;;;2.62;2.42;;;;;;;25.41;50.60;98723.92;2313038;77;20939;-82
2022/09/09 11:39:20;;;;;;;2.40;2.20;;;;;;;25.52;49.95;98724.71;2313373;77;20924;-82
2022/09/09 11:42:21;;;;;;;5.20;2.12;;;;;;;25.44;49.22;98728.23;2313032;77;21619;-81
2022/09/09 11:45:21;;;;;;;2.92;2.10;;;;;;;25.69;49.44;98728.76;2305678;77;21009;-81
2022/09/09 11:48:21;;;;;;;2.27;1.82;;;;;;;25.92;48.61;98731.58;2299449;77;20913;-82
2022/09/09 11:51:22;;;;;;;6.03;2.02;;;;;;;26.09;48.15;98714.67;2300216;77;20968;-81
2022/09/09 11:54:22;;;;;;;2.02;1.85;;;;;;;26.05;47.94;98720.66;2300472;77;21495;-80
2022/09/09 11:57:24;;;;;;;2.08;1.90;;;;;;;26.20;47.82;98709.61;2301252;77;20933;-81
2022/09/09 12:00:23;;;;;;;36.20;27.82;;;;;;;26.25;47.89;98703.55;2301712;77;20894;-83
2022/09/09 12:03:23;;;;;;;2.70;2.50;;;;;;;26.41;47.61;98708.48;2301151;77;20961;-85
2022/09/09 12:06:24;;;;;;;33.78;27.32;;;;;;;26.34;47.30;98708.43;2301141;77;20947;-83
2022/09/09 12:09:24;;;;;;;4.65;3.22;;;;;;;26.17;47.57;98705.77;2300254;77;20972;-83
2022/09/09 12:12:25;;;;;;;2.70;2.02;;;;;;;26.01;47.50;98709.26;2299428;77;20948;-82
2022/09/09 12:15:27;;;;;;;3.00;2.20;;;;;;;25.80;47.52;98718.38;2298831;77;21623;-84
2022/09/09 12:18:26;;;;;;;2.12;1.82;;;;;;;25.68;48.00;98713.19;2298572;77;20937;-83
2022/09/09 12:21:26;;;;;;;3.20;1.60;;;;;;;25.80;48.79;98711.69;2298218;77;20894;-83
2022/09/09 12:24:26;;;;;;;2.10;1.85;;;;;;;25.99;46.75;98713.79;2296610;77;20937;-83
2022/09/09 12:27:27;;;;;;;1.92;1.80;;;;;;;26.25;46.79;98716.45;2297238;77;20953;-82
2022/09/09 12:30:28;;;;;;;4.10;2.35;;;;;;;26.32;44.89;98720.55;2296995;77;21008;-80
2022/09/09 12:33:27;;;;;;;2.55;1.87;;;;;;;26.32;44.24;98715.64;2297485;77;20886;-81
2022/09/09 12:36:28;;;;;;;2.95;1.67;;;;;;;26.27;45.22;98711.02;2298686;77;20937;-81
2022/09/09 12:39:28;;;;;;;1.82;1.72;;;;;;;26.17;44.38;98715.13;2298939;77;20952;-82
2022/09/09 12:42:29;;;;;;;1.82;1.72;;;;;;;26.01;44.93;98709.26;2298458;77;21020;-81
2022/09/09 12:45:30;;;;;;;2.25;1.80;;;;;;;26.05;45.04;98705.09;2290462;77;20947;-81
2022/09/09 12:48:30;;;;;;;1.60;1.50;;;;;;;25.88;45.00;98705.47;2281226;78;20918;-82
2022/09/09 12:51:30;;;;;;;1.72;1.62;;;;;;;25.81;46.09;98711.22;2281272;78;20970;-82
2022/09/09 12:54:30;;;;;;;3.25;1.80;;;;;;;25.87;46.14;98712.23;2281655;78;20998;-81
2022/09/09 12:57:31;;;;;;;2.95;1.67;;;;;;;25.93;45.93;98710.58;2282343;78;20915;-81
2022/09/09 13:00:31;;;;;;;1.62;1.52;;;;;;;25.96;45.80;98711.75;2282839;78;20962;-81
2022/09/09 13:03:32;;;;;;;2.00;1.77;;;;;;;26.07;44.99;98705.87;2282679;78;20955;-80
2022/09/09 13:06:32;;;;;;;2.75;1.50;;;;;;;26.04;44.62;98702.88;2282506;78;20966;-80
2022/09/09 13:09:32;;;;;;;3.20;1.65;;;;;;;25.62;44.66;98701.92;2281640;78;20974;-82
2022/09/09 13:12:33;;;;;;;2.27;1.55;;;;;;;25.23;45.83;98696.31;2282347;78;20958;-81
2022/09/09 13:15:33;;;;;;;1.70;1.57;;;;;;;25.11;45.78;98704.04;2283181;78;20903;-80
2022/09/09 13:18:34;;;;;;;1.77;1.67;;;;;;;25.03;45.77;98706.61;2282252;78;21500;-81
2022/09/09 13:21:34;;;;;;;1.72;1.62;;;;;;;25.09;45.39;98706.31;2282972;78;20923;-81
2022/09/09 13:24:35;;;;;;;1.77;1.57;;;;;;;25.45;46.10;98701.91;2282796;78;21406;-80
2022/09/09 13:27:38;;;;;;;1.60;1.50;;;;;;;25.69;44.24;98705.56;2282510;78;20895;-80
2022/09/09 13:30:36;;;;;;;2.08;1.62;;;;;;;25.69;44.01;98696.68;2281342;78;20922;-80
2022/09/09 13:33:36;;;;;;;2.20;1.47;;;;;;;25.70;43.57;98689.05;2281367;78;20918;-81
2022/09/09 13:36:36;;;;;;;3.92;1.57;;;;;;;25.86;44.03;98692.66;2281933;78;20966;-84
2022/09/09 13:39:36;;;;;;;3.35;1.50;;;;;;;25.99;43.84;98692.39;2282075;78;21390;-81
2022/09/09 13:42:37;;;;;;;1.60;1.50;;;;;;;25.92;43.85;98696.34;2282315;78;20931;-81
2022/09/09 13:45:38;;;;;;;1.47;1.30;;;;;;;25.77;44.32;98691.80;2289134;77;20949;-80
2022/09/09 13:48:38;;;;;;;1.90;1.40;;;;;;;25.58;44.66;98693.66;2300696;77;20898;-81
2022/09/09 13:51:38;;;;;;;1.67;1.30;;;;;;;25.35;44.91;98697.03;2299886;77;21352;-78
2022/09/09 13:54:39;;;;;;;29.63;7.42;;;;;;;25.22;43.82;98694.59;2300775;77;20922;-81
2022/09/09 13:57:39;;;;;;;12.07;10.85;;;;;;;25.25;45.42;98697.10;2300666;77;20921;-81